Time;durP1;ratioP1;P1;durP2;ratioP2;P2;SDS_P1;SDS_P2;PMS_P1;PMS_P2;Temp;Humidity;BMP_temperature;BMP_pressure;BME280_temperature;BME280_humidity;BME280_pressure;Samples;Min_cycle;Max_cycle;Signal;HPM_P1;HPM_P2
2023/11/20 00:11:30;;;;;;;13.82;3.33;;;;;;;7.60;75.82;99376.47;30974867;28;97551;-64
2023/11/20 00:26:30;;;;;;;10.18;3.65;;;;;;;7.62;75.87;99374.47;30973478;28;97181;-65
2023/11/20 00:41:34;;;;;;;4.88;2.65;;;;;;;7.67;75.77;99390.69;30970640;28;112796;-63
2023/11/20 00:56:34;;;;;;;8.10;2.27;;;;;;;7.73;76.08;99387.34;30970036;28;97126;-64
2023/11/20 01:11:36;;;;;;;6.82;2.33;;;;;;;7.84;76.04;99382.66;30969712;28;96729;-63
2023/11/20 01:26:37;;;;;;;10.47;2.57;;;;;;;7.85;75.90;99384.34;30967636;28;96620;-64
2023/11/20 01:41:37;;;;;;;8.30;2.55;;;;;;;7.83;76.55;99375.72;30966142;28;97551;-64
2023/11/20 01:56:37;;;;;;;8.23;2.13;;;;;;;7.89;76.78;99361.78;30964036;28;106251;-64
2023/11/20 02:11:38;;;;;;;7.30;2.20;;;;;;;7.77;76.97;99356.84;30963095;28;96803;-64
2023/11/20 02:26:50;;;;;;;8.20;2.67;;;;;;;7.63;77.40;99349.63;30962850;28;97134;-64
2023/11/20 02:41:50;;;;;;;9.20;2.70;;;;;;;7.58;77.65;99349.28;30961515;28;97159;-63
2023/11/20 02:56:51;;;;;;;8.32;2.80;;;;;;;7.62;78.15;99337.34;30967890;28;112872;-63
2023/11/20 03:11:51;;;;;;;9.60;3.03;;;;;;;7.59;78.35;99330.56;30980571;28;97641;-63
2023/11/20 03:26:52;;;;;;;7.95;2.95;;;;;;;7.49;78.27;99327.31;30979360;28;96700;-64
2023/11/20 03:41:52;;;;;;;8.23;3.45;;;;;;;7.37;78.87;99313.59;30978360;28;96663;-64
2023/11/20 03:56:52;;;;;;;5.57;3.22;;;;;;;7.40;79.54;99300.00;30975494;28;114771;-65
2023/11/20 04:11:53;;;;;;;5.75;3.30;;;;;;;7.42;79.40;99294.53;30972259;28;104196;-64
2023/11/20 04:26:53;;;;;;;5.88;2.97;;;;;;;7.47;79.91;99275.47;30969946;28;116658;-64
2023/11/20 04:41:53;;;;;;;3.72;2.25;;;;;;;7.54;79.50;99279.06;30968565;28;108987;-63
2023/11/20 04:56:54;;;;;;;7.38;2.97;;;;;;;7.55;79.74;99272.78;30967948;28;96759;-64
2023/11/20 05:11:56;;;;;;;6.10;3.28;;;;;;;7.63;79.49;99267.44;30964479;28;112128;-63
2023/11/20 05:26:56;;;;;;;5.07;3.40;;;;;;;7.62;79.69;99276.38;30960338;28;97328;-63
2023/11/20 05:41:57;;;;;;;5.88;3.40;;;;;;;7.67;79.89;99262.59;30960878;28;101585;-63
2023/11/20 05:56:57;;;;;;;8.88;3.97;;;;;;;7.73;79.84;99259.28;30960968;28;101068;-64
2023/11/20 06:11:58;;;;;;;6.40;3.20;;;;;;;7.73;79.64;99273.34;30959545;28;97577;-64
2023/11/20 06:26:59;;;;;;;6.65;2.58;;;;;;;7.74;79.48;99276.84;30959777;28;109141;-63
2023/11/20 06:42:00;;;;;;;7.45;4.15;;;;;;;7.75;79.99;99281.97;30957050;28;97063;-63
2023/11/20 06:57:00;;;;;;;5.17;3.40;;;;;;;7.74;80.18;99296.22;30952977;28;96760;-64
2023/11/20 07:12:01;;;;;;;8.65;3.47;;;;;;;7.69;79.51;99301.19;30955430;28;97135;-64
2023/11/20 07:27:01;;;;;;;8.75;3.92;;;;;;;7.70;79.94;99297.56;30954266;28;97166;-63
2023/11/20 07:42:02;;;;;;;7.63;3.75;;;;;;;7.69;79.92;99301.19;30961095;28;97034;-63
2023/11/20 07:57:03;;;;;;;5.55;3.20;;;;;;;7.61;80.11;99299.44;30972647;28;96682;-63
2023/11/20 08:12:04;;;;;;;5.40;2.80;;;;;;;7.59;80.48;99290.81;30972791;28;97385;-64
2023/11/20 08:27:05;;;;;;;4.93;2.43;;;;;;;7.61;80.73;99299.44;30970991;28;97434;-65
2023/11/20 08:42:05;;;;;;;4.07;3.00;;;;;;;7.57;80.68;99303.44;30968756;28;96912;-63
2023/11/20 08:57:06;;;;;;;5.28;3.17;;;;;;;7.61;80.90;99301.25;30964651;28;96932;-64
2023/11/20 09:12:07;;;;;;;6.60;3.20;;;;;;;7.65;81.04;99289.28;30963750;28;107462;-64
2023/11/20 09:27:10;;;;;;;6.67;3.60;;;;;;;7.77;81.28;99282.59;30961534;28;97102;-65
2023/11/20 09:42:10;;;;;;;4.33;2.87;;;;;;;7.96;81.38;99267.25;30961709;28;97233;-63
2023/11/20 09:57:11;;;;;;;6.50;2.70;;;;;;;8.14;81.84;99251.84;30960066;28;96734;-64
2023/11/20 10:12:14;;;;;;;4.10;2.10;;;;;;;8.48;81.31;99244.50;30959986;28;97243;-62
2023/11/20 10:27:17;;;;;;;4.57;2.70;;;;;;;8.23;81.66;99235.88;30956264;28;97246;-62
2023/11/20 10:42:17;;;;;;;9.77;2.73;;;;;;;8.22;82.10;99219.13;30953060;28;97472;-62
2023/11/20 10:57:20;;;;;;;4.38;2.70;;;;;;;8.52;82.15;99218.41;30953108;28;110901;-62
2023/11/20 11:12:22;;;;;;;6.97;3.70;;;;;;;8.72;81.71;99206.25;30954518;28;96809;-63
2023/11/20 11:27:31;;;;;;;5.63;2.80;;;;;;;9.01;81.67;99179.84;30971768;28;97117;-63
2023/11/20 11:42:43;;;;;;;6.20;2.50;;;;;;;9.45;81.60;99158.50;30971782;28;97438;-62
2023/11/20 11:57:50;;;;;;;3.87;2.27;;;;;;;9.95;81.86;99155.94;30971429;28;98815;-63
2023/11/20 12:13:06;;;;;;;7.00;3.00;;;;;;;10.05;81.22;99150.28;30971251;28;97124;-64
2023/11/20 12:28:09;;;;;;;3.20;1.30;;;;;;;9.94;81.59;99138.31;30965242;28;96938;-63
2023/11/20 12:43:10;;;;;;;2.97;1.57;;;;;;;9.98;81.32;99138.78;30967504;28;97291;-64
2023/11/20 12:58:11;;;;;;;2.03;1.20;;;;;;;9.99;81.49;99137.72;30966722;28;97499;-64
2023/11/20 13:13:12;;;;;;;3.50;1.67;;;;;;;9.91;81.72;99130.72;30963800;28;97185;-64
2023/11/20 13:28:13;;;;;;;3.38;1.50;;;;;;;9.78;81.39;99131.41;30960712;28;107183;-63
2023/11/20 13:43:14;;;;;;;3.33;1.70;;;;;;;9.63;81.51;99130.69;30960293;28;97187;-63
2023/11/20 13:58:22;;;;;;;3.80;1.70;;;;;;;9.44;82.37;99146.22;30958817;28;100693;-64
2023/11/20 14:13:24;;;;;;;4.30;1.70;;;;;;;9.45;82.73;99144.41;30960434;28;97470;-63
2023/11/20 14:28:25;;;;;;;2.80;1.40;;;;;;;9.39;82.05;99150.47;30958657;28;96715;-63
2023/11/20 14:43:25;;;;;;;2.33;1.60;;;;;;;9.36;82.29;99159.63;30959165;28;108784;-64
2023/11/20 14:58:25;;;;;;;6.07;3.40;;;;;;;9.25;82.81;99158.31;30972673;28;117456;-63
2023/11/20 15:13:26;;;;;;;3.05;1.90;;;;;;;9.21;82.17;99156.19;30976312;28;106355;-63
2023/11/20 15:28:27;;;;;;;3.15;1.60;;;;;;;9.11;82.93;99167.94;30975741;28;97394;-62
2023/11/20 15:43:27;;;;;;;4.25;2.30;;;;;;;9.04;82.86;99172.34;30975208;28;97012;-63
2023/11/20 15:58:29;;;;;;;3.33;2.00;;;;;;;9.02;83.13;99176.19;30972188;28;111111;-63
2023/11/20 16:13:29;;;;;;;4.30;2.10;;;;;;;8.94;83.31;99185.13;30972538;28;97056;-64
2023/11/20 16:28:29;;;;;;;7.25;3.90;;;;;;;8.93;83.58;99197.56;30970533;28;107432;-63
2023/11/20 16:43:29;;;;;;;5.25;3.00;;;;;;;8.91;83.44;99209.38;30969917;28;107011;-63
2023/11/20 16:58:30;;;;;;;5.20;2.35;;;;;;;8.84;83.26;99203.16;30967205;28;97150;-62
2023/11/20 17:13:30;;;;;;;6.25;2.67;;;;;;;8.80;83.66;99207.97;30966051;28;113788;-64
2023/11/20 17:28:30;;;;;;;4.68;2.00;;;;;;;8.76;83.44;99207.53;30963936;28;97659;-64
2023/11/20 17:43:31;;;;;;;5.72;1.58;;;;;;;8.74;83.64;99225.47;30963615;28;99904;-64
2023/11/20 17:58:32;;;;;;;4.10;1.90;;;;;;;8.64;83.99;99225.75;30959492;28;115401;-63
2023/11/20 18:13:33;;;;;;;3.80;1.87;;;;;;;8.56;83.60;99227.66;30959653;28;97433;-64
2023/11/20 18:28:33;;;;;;;3.57;2.13;;;;;;;8.49;83.38;99234.69;30958480;28;97693;-62
2023/11/20 18:43:33;;;;;;;5.00;2.20;;;;;;;8.39;83.59;99232.25;30956858;28;96988;-64
2023/11/20 18:58:34;;;;;;;4.30;1.90;;;;;;;8.36;83.57;99238.75;30954656;28;107130;-63
2023/11/20 19:13:35;;;;;;;3.80;1.97;;;;;;;8.30;83.40;99236.81;30954388;28;97198;-62
2023/11/20 19:28:35;;;;;;;4.38;2.53;;;;;;;8.25;83.37;99247.94;30954237;28;110115;-63
2023/11/20 19:43:36;;;;;;;4.75;1.85;;;;;;;8.21;83.72;99259.09;30968325;28;107383;-63
2023/11/20 19:58:36;;;;;;;4.60;2.20;;;;;;;8.18;83.75;99247.03;30973528;28;96790;-63
2023/11/20 20:13:38;;;;;;;5.30;2.10;;;;;;;8.14;83.54;99251.84;30972508;28;97064;-63
2023/11/20 20:28:39;;;;;;;5.23;2.40;;;;;;;8.12;83.69;99251.22;30969177;28;97226;-62
2023/11/20 20:43:39;;;;;;;4.10;2.27;;;;;;;8.07;83.59;99260.72;30969290;28;97024;-64
2023/11/20 20:58:40;;;;;;;4.22;2.45;;;;;;;8.05;83.53;99286.56;30966735;28;97530;-63
2023/11/20 21:13:42;;;;;;;7.38;4.05;;;;;;;8.02;84.02;99281.63;30966756;28;111570;-63
2023/11/20 21:28:42;;;;;;;7.33;3.10;;;;;;;7.98;83.86;99278.50;30966722;28;96770;-64
2023/11/20 21:43:43;;;;;;;7.63;3.10;;;;;;;8.01;83.58;99302.03;30965606;28;97090;-65
2023/11/20 21:58:44;;;;;;;7.90;2.80;;;;;;;7.99;83.85;99311.97;30963670;28;97376;-64
2023/11/20 22:13:46;;;;;;;7.75;3.30;;;;;;;7.91;83.39;99309.38;30961655;28;97072;-63
2023/11/20 22:28:47;;;;;;;8.07;2.40;;;;;;;7.87;83.53;99318.69;30961257;28;96699;-64
2023/11/20 22:43:47;;;;;;;6.57;3.00;;;;;;;7.84;83.89;99329.63;30959899;28;97209;-65
2023/11/20 22:58:48;;;;;;;8.50;2.70;;;;;;;7.82;83.66;99334.28;30959352;28;110067;-63
2023/11/20 23:13:49;;;;;;;7.20;2.60;;;;;;;7.77;83.95;99330.31;30968416;28;97265;-62
2023/11/20 23:28:49;;;;;;;4.60;2.53;;;;;;;7.71;84.06;99341.63;30979873;28;96670;-63
2023/11/20 23:43:49;;;;;;;8.40;2.75;;;;;;;7.66;84.17;99349.25;30977894;28;108024;-63
2023/11/20 23:58:50;;;;;;;9.27;2.70;;;;;;;7.59;84.21;99361.56;30976647;28;97266;-65
